Weather at Frigg DP2 Platform [CLOSED]

Public forecast

Using degrees Celsius for public forecast. Weather courtesy of forecast.io.

Closest aviation weather report (METAR) to Frigg DP2 Platform

Closest report is Oseberg A Platform, 42.8 nm (79.2 km) NNE.

2024/07/21 07:20 (retrieved 17 minutes ago)

ENOA 210720Z 15039KT 9999 BKN040 BKN060 18/13 Q1001 W///S4

Closest aviation forecast (TAF) to Frigg DP2 Platform

Closest forecast is Oseberg A Platform, 42.8 nm (79.2 km) NNE.

2024/07/21 06:36 (retrieved 1 hour ago)

TAF ENOA 210500Z 2106/2206 15040KT 9999 BKN040 TEMPO 2106/2113 SHRA BKN014CB PROB30 TEMPO 2108/2111 4000 TSRA BKN009 PROB30 2111/2113 18025KT 0800 FG VV002 BECMG 2112/2114 27020KT TEMPO 2113/2206 BKN012 BECMG 2200/2203 26010KT